Time;durP1;ratioP1;P1;durP2;ratioP2;P2;SDS_P1;SDS_P2;PMS_P1;PMS_P2;Temp;Humidity;BMP_temperature;BMP_pressure;BME280_temperature;BME280_humidity;BME280_pressure;Samples;Min_cycle;Max_cycle;Signal;HPM_P1;HPM_P2
2021/06/17 00:00:33;;;;;;;14.68;3.55;;;;;;;;;;6341206;28;20190;-75
2021/06/17 00:03:38;;;;;;;11.73;3.50;;;;;;;;;;6332572;28;20183;-74
2021/06/17 00:06:42;;;;;;;11.90;3.28;;;;;;;;;;6341159;28;20187;-75
2021/06/17 00:09:47;;;;;;;7.70;3.28;;;;;;;;;;6339934;28;20497;-75
2021/06/17 00:12:50;;;;;;;7.40;3.10;;;;;;;;;;6341267;28;20214;-74
2021/06/17 00:15:55;;;;;;;7.50;3.42;;;;;;;;;;6339990;28;20273;-75
2021/06/17 00:19:02;;;;;;;7.47;3.30;;;;;;;;;;6340639;28;20190;-74
2021/06/17 00:22:05;;;;;;;14.68;3.83;;;;;;;;;;6339632;28;20376;-75
2021/06/17 00:25:14;;;;;;;12.50;3.40;;;;;;;;;;6339431;28;20501;-75
2021/06/17 00:28:18;;;;;;;8.35;3.40;;;;;;;;;;6340815;28;20187;-75
2021/06/17 00:31:22;;;;;;;5.43;2.92;;;;;;;;;;6340799;28;20247;-75
2021/06/17 00:34:27;;;;;;;5.85;2.83;;;;;;;;;;6339429;28;20470;-75
2021/06/17 00:37:31;;;;;;;3.70;3.05;;;;;;;;;;6340174;28;20210;-75
2021/06/17 00:40:35;;;;;;;6.68;3.75;;;;;;;;;;6340633;28;20229;-75
2021/06/17 00:43:38;;;;;;;8.55;3.42;;;;;;;;;;6340244;28;20187;-74
2021/06/17 00:46:42;;;;;;;11.95;3.30;;;;;;;;;;6340149;28;20254;-74
2021/06/17 00:49:47;;;;;;;12.00;3.72;;;;;;;;;;6340368;28;20190;-74
2021/06/17 00:52:51;;;;;;;3.78;3.00;;;;;;;;;;6339851;28;20182;-73
2021/06/17 00:55:55;;;;;;;9.70;3.38;;;;;;;;;;6338829;28;20474;-74
2021/06/17 00:58:59;;;;;;;9.55;3.67;;;;;;;;;;6340031;28;20252;-74
2021/06/17 01:02:03;;;;;;;15.18;3.20;;;;;;;;;;6339766;28;20183;-74
2021/06/17 01:05:12;;;;;;;10.77;3.55;;;;;;;;;;6340022;28;20187;-74
2021/06/17 01:08:38;;;;;;;4.53;3.13;;;;;;;;;;6339572;28;20255;-74
2021/06/17 01:11:45;;;;;;;12.30;3.80;;;;;;;;;;6332292;28;20277;-74
2021/06/17 01:14:52;;;;;;;8.98;3.58;;;;;;;;;;6339461;28;20246;-74
2021/06/17 01:17:58;;;;;;;5.03;3.47;;;;;;;;;;6339583;28;20238;-74
2021/06/17 01:21:09;;;;;;;13.80;3.35;;;;;;;;;;6339708;28;20187;-74
2021/06/17 01:24:20;;;;;;;9.45;3.47;;;;;;;;;;6338073;28;20244;-74
2021/06/17 01:27:33;;;;;;;12.05;3.42;;;;;;;;;;6338076;28;20414;-74
2021/06/17 01:30:41;;;;;;;8.05;3.35;;;;;;;;;;6339355;28;20189;-74
2021/06/17 01:33:46;;;;;;;9.63;3.90;;;;;;;;;;6339161;28;20183;-74
2021/06/17 01:36:58;;;;;;;6.47;3.40;;;;;;;;;;6338797;28;20210;-74
2021/06/17 01:40:02;;;;;;;5.57;3.38;;;;;;;;;;6339190;28;20183;-74
2021/06/17 01:43:07;;;;;;;10.90;3.75;;;;;;;;;;6338728;28;20183;-74
2021/06/17 01:46:13;;;;;;;5.72;3.45;;;;;;;;;;6337690;28;20489;-75
2021/06/17 01:49:17;;;;;;;12.48;3.70;;;;;;;;;;6338816;28;20254;-75
2021/06/17 01:52:22;;;;;;;20.33;4.15;;;;;;;;;;6318946;28;20202;-75
2021/06/17 01:55:29;;;;;;;16.77;3.55;;;;;;;;;;6338264;28;20266;-74
2021/06/17 01:58:33;;;;;;;14.52;3.30;;;;;;;;;;6338689;28;20270;-75
2021/06/17 02:01:39;;;;;;;9.80;3.40;;;;;;;;;;6338646;28;20183;-75
2021/06/17 02:04:46;;;;;;;7.07;3.25;;;;;;;;;;6338196;28;20221;-75
2021/06/17 02:07:51;;;;;;;11.10;3.97;;;;;;;;;;6338099;28;20187;-75
2021/06/17 02:10:55;;;;;;;6.93;3.50;;;;;;;;;;6337197;28;20450;-74
2021/06/17 02:13:59;;;;;;;6.20;3.42;;;;;;;;;;6337006;28;20183;-75
2021/06/17 02:17:06;;;;;;;9.40;3.65;;;;;;;;;;6338288;28;20238;-75
2021/06/17 02:20:13;;;;;;;8.75;3.50;;;;;;;;;;6336922;28;20446;-75
2021/06/17 02:23:17;;;;;;;7.25;3.15;;;;;;;;;;6338279;28;20220;-75
2021/06/17 02:26:21;;;;;;;6.13;3.00;;;;;;;;;;6336790;28;20183;-75
2021/06/17 02:29:25;;;;;;;5.70;2.90;;;;;;;;;;6338094;28;20186;-75
2021/06/17 02:32:31;;;;;;;5.70;3.10;;;;;;;;;;6336999;28;20514;-75
2021/06/17 02:35:36;;;;;;;7.57;3.53;;;;;;;;;;6336773;28;20489;-75
2021/06/17 02:38:40;;;;;;;6.25;3.20;;;;;;;;;;6337914;28;20211;-75
2021/06/17 02:41:45;;;;;;;5.80;3.28;;;;;;;;;;6336497;28;20464;-75
2021/06/17 02:44:50;;;;;;;5.65;3.40;;;;;;;;;;6337502;28;20257;-75
2021/06/17 02:47:55;;;;;;;6.03;3.53;;;;;;;;;;6337795;28;20218;-75
2021/06/17 02:50:58;;;;;;;4.47;3.00;;;;;;;;;;6338075;28;20182;-75
2021/06/17 02:54:03;;;;;;;8.75;3.13;;;;;;;;;;6336166;28;20464;-75
2021/06/17 02:57:10;;;;;;;6.25;3.10;;;;;;;;;;6336281;28;20182;-75
2021/06/17 03:00:15;;;;;;;3.95;3.38;;;;;;;;;;6337761;28;20189;-75
2021/06/17 03:03:25;;;;;;;5.28;3.25;;;;;;;;;;6337688;28;20182;-75
2021/06/17 03:06:31;;;;;;;9.85;3.83;;;;;;;;;;6337661;28;20183;-75
2021/06/17 03:09:42;;;;;;;6.25;3.40;;;;;;;;;;6337239;28;20186;-75
2021/06/17 03:12:48;;;;;;;7.35;3.65;;;;;;;;;;6336555;28;20220;-75
2021/06/17 03:15:52;;;;;;;7.95;3.90;;;;;;;;;;6321491;28;20198;-75
2021/06/17 03:18:59;;;;;;;8.23;3.72;;;;;;;;;;6342434;28;20249;-75
2021/06/17 03:22:05;;;;;;;7.00;3.70;;;;;;;;;;6341136;28;20218;-73
2021/06/17 03:25:13;;;;;;;10.93;3.78;;;;;;;;;;6342369;28;20189;-73
2021/06/17 03:28:18;;;;;;;8.18;3.25;;;;;;;;;;6340868;28;20549;-73
2021/06/17 03:31:22;;;;;;;4.10;3.70;;;;;;;;;;6341986;28;20183;-73
2021/06/17 03:34:28;;;;;;;6.45;3.22;;;;;;;;;;6341836;28;20190;-73
2021/06/17 03:37:32;;;;;;;7.43;3.72;;;;;;;;;;6340561;28;20183;-73
2021/06/17 03:40:37;;;;;;;6.32;3.25;;;;;;;;;;6341704;28;20183;-73
2021/06/17 03:43:41;;;;;;;9.60;3.80;;;;;;;;;;6341999;28;20250;-73
2021/06/17 03:46:46;;;;;;;6.55;3.65;;;;;;;;;;6341792;28;20244;-75
2021/06/17 03:49:52;;;;;;;4.60;3.63;;;;;;;;;;6340515;28;20524;-73
2021/06/17 03:52:57;;;;;;;7.53;4.07;;;;;;;;;;6339846;28;20522;-73
2021/06/17 03:56:01;;;;;;;8.30;3.60;;;;;;;;;;6340776;28;20189;-74
2021/06/17 03:59:05;;;;;;;12.38;3.88;;;;;;;;;;6341527;28;20238;-74
2021/06/17 04:02:10;;;;;;;10.07;3.92;;;;;;;;;;6341512;28;20183;-74
2021/06/17 04:05:15;;;;;;;5.82;3.67;;;;;;;;;;6341503;28;20187;-73
2021/06/17 04:08:22;;;;;;;9.45;4.10;;;;;;;;;;6341267;28;20186;-73
2021/06/17 04:11:26;;;;;;;8.18;3.50;;;;;;;;;;6339925;28;20192;-73
2021/06/17 04:14:31;;;;;;;8.07;3.42;;;;;;;;;;6340053;28;20478;-74
2021/06/17 04:17:38;;;;;;;8.90;4.00;;;;;;;;;;6341134;28;20189;-74
2021/06/17 04:20:44;;;;;;;6.68;3.88;;;;;;;;;;6340434;28;20238;-73
2021/06/17 04:23:51;;;;;;;9.98;3.75;;;;;;;;;;6339608;28;20250;-73
2021/06/17 04:26:55;;;;;;;6.10;3.28;;;;;;;;;;6339179;28;20377;-73
2021/06/17 04:29:59;;;;;;;12.30;4.10;;;;;;;;;;6339403;28;20187;-73
2021/06/17 04:33:06;;;;;;;6.82;3.75;;;;;;;;;;6340406;28;20263;-74
2021/06/17 04:36:12;;;;;;;5.78;3.63;;;;;;;;;;6340625;28;20228;-74
2021/06/17 04:39:17;;;;;;;8.38;3.78;;;;;;;;;;6339042;28;20437;-74
2021/06/17 04:42:21;;;;;;;12.82;3.85;;;;;;;;;;6339538;28;20183;-74
2021/06/17 04:45:27;;;;;;;6.25;3.75;;;;;;;;;;6339111;28;20516;-73
2021/06/17 04:48:34;;;;;;;8.52;3.65;;;;;;;;;;6339098;28;20218;-76
2021/06/17 04:51:40;;;;;;;4.85;3.33;;;;;;;;;;6338765;28;20254;-73
2021/06/17 04:54:43;;;;;;;9.80;3.45;;;;;;;;;;6339148;28;20238;-73
2021/06/17 04:57:47;;;;;;;5.57;3.10;;;;;;;;;;6339590;28;20183;-74
2021/06/17 05:00:51;;;;;;;13.27;3.20;;;;;;;;;;6339760;28;20206;-75
2021/06/17 05:03:54;;;;;;;6.70;2.92;;;;;;;;;;6339114;28;20469;-74
2021/06/17 05:07:20;;;;;;;10.32;3.78;;;;;;;;;;6338356;28;20428;-73
2021/06/17 05:13:45;;;;;;;11.32;3.03;;;;;;;;;;6321361;28;20206;-74
2021/06/17 05:16:49;;;;;;;6.30;3.00;;;;;;;;;;6339540;28;20224;-74
2021/06/17 05:19:53;;;;;;;11.80;3.22;;;;;;;;;;6338492;28;20210;-74
2021/06/17 05:22:58;;;;;;;9.30;2.92;;;;;;;;;;6339488;28;20183;-74
2021/06/17 05:26:02;;;;;;;7.75;2.92;;;;;;;;;;6338209;28;20498;-75
2021/06/17 05:29:06;;;;;;;3.42;3.03;;;;;;;;;;6339212;28;20187;-75
2021/06/17 05:32:14;;;;;;;6.57;2.55;;;;;;;;;;6337760;28;20557;-74
2021/06/17 05:35:17;;;;;;;3.67;2.60;;;;;;;;;;6338836;28;20187;-75
2021/06/17 05:38:23;;;;;;;6.13;3.08;;;;;;;;;;6338159;28;20229;-75
2021/06/17 05:41:27;;;;;;;6.80;3.05;;;;;;;;;;6338951;28;20211;-75
2021/06/17 05:44:31;;;;;;;7.30;2.78;;;;;;;;;;6338605;28;20215;-75
2021/06/17 05:47:36;;;;;;;5.63;2.67;;;;;;;;;;6338668;28;20254;-74
2021/06/17 05:50:40;;;;;;;5.72;2.78;;;;;;;;;;6337469;28;20218;-75
2021/06/17 05:53:45;;;;;;;4.97;3.00;;;;;;;;;;6337734;28;20234;-75
2021/06/17 05:56:49;;;;;;;4.68;2.60;;;;;;;;;;6338412;28;20187;-75
2021/06/17 05:59:52;;;;;;;6.05;2.70;;;;;;;;;;6337091;28;20273;-75
2021/06/17 06:02:56;;;;;;;6.50;2.58;;;;;;;;;;6338377;28;20362;-75
2021/06/17 06:06:00;;;;;;;4.82;2.72;;;;;;;;;;6338148;28;20246;-75
2021/06/17 06:09:05;;;;;;;3.45;2.55;;;;;;;;;;6336974;28;20376;-75
2021/06/17 06:12:11;;;;;;;6.97;2.92;;;;;;;;;;6337895;28;20183;-74
2021/06/17 06:15:15;;;;;;;3.55;2.55;;;;;;;;;;6337443;28;20183;-75
2021/06/17 06:18:19;;;;;;;9.23;3.00;;;;;;;;;;6338008;28;20214;-75
2021/06/17 06:21:23;;;;;;;7.43;2.45;;;;;;;;;;6338055;28;20213;-75
2021/06/17 06:24:29;;;;;;;6.65;2.72;;;;;;;;;;6319283;28;20205;-75
2021/06/17 06:27:32;;;;;;;10.23;2.95;;;;;;;;;;6337805;28;20183;-76
2021/06/17 06:30:36;;;;;;;7.50;2.67;;;;;;;;;;6337898;28;20190;-75
2021/06/17 06:33:40;;;;;;;3.90;2.60;;;;;;;;;;6336480;28;20214;-75
2021/06/17 06:36:43;;;;;;;10.32;2.40;;;;;;;;;;6336774;28;20260;-75
2021/06/17 06:39:49;;;;;;;5.20;2.65;;;;;;;;;;6337748;28;20212;-75
2021/06/17 06:42:52;;;;;;;4.90;2.83;;;;;;;;;;6337364;28;20190;-75
2021/06/17 06:45:56;;;;;;;4.65;2.70;;;;;;;;;;6337296;28;20254;-75
2021/06/17 06:49:00;;;;;;;4.78;2.60;;;;;;;;;;6335902;28;20439;-75
2021/06/17 06:52:04;;;;;;;8.70;2.97;;;;;;;;;;6337796;28;20187;-74
2021/06/17 06:55:10;;;;;;;5.18;2.53;;;;;;;;;;6336337;28;20261;-75
2021/06/17 06:58:16;;;;;;;7.25;2.50;;;;;;;;;;6337338;28;20182;-75
2021/06/17 07:01:19;;;;;;;6.47;2.42;;;;;;;;;;6335992;28;20436;-75
2021/06/17 07:04:23;;;;;;;5.20;2.67;;;;;;;;;;6337392;28;20182;-75
2021/06/17 07:07:27;;;;;;;6.32;2.15;;;;;;;;;;6337119;28;20183;-75
2021/06/17 07:10:32;;;;;;;5.18;2.78;;;;;;;;;;6337743;28;20229;-75
2021/06/17 07:13:35;;;;;;;10.98;2.70;;;;;;;;;;6337031;28;20187;-73
2021/06/17 07:16:39;;;;;;;10.20;2.55;;;;;;;;;;6336030;28;20356;-76
2021/06/17 07:19:44;;;;;;;4.05;2.90;;;;;;;;;;6336803;28;20206;-76
2021/06/17 07:22:48;;;;;;;8.95;2.65;;;;;;;;;;6336968;28;20183;-76
2021/06/17 07:25:53;;;;;;;10.18;3.00;;;;;;;;;;6335856;28;20461;-75
2021/06/17 07:28:57;;;;;;;13.18;2.72;;;;;;;;;;6336936;28;20186;-75
2021/06/17 07:32:03;;;;;;;15.70;3.35;;;;;;;;;;6337160;28;20209;-75
2021/06/17 07:35:07;;;;;;;5.70;2.40;;;;;;;;;;6337157;28;20240;-75
2021/06/17 07:38:14;;;;;;;3.65;2.70;;;;;;;;;;6337113;28;20183;-75
2021/06/17 07:41:20;;;;;;;5.93;2.47;;;;;;;;;;6336961;28;20214;-75
2021/06/17 07:44:23;;;;;;;10.38;3.42;;;;;;;;;;6335636;28;20497;-76
2021/06/17 07:47:27;;;;;;;7.05;2.90;;;;;;;;;;6336702;28;20189;-76
2021/06/17 07:50:31;;;;;;;9.95;2.67;;;;;;;;;;6335528;28;20414;-76
2021/06/17 07:53:35;;;;;;;6.28;2.88;;;;;;;;;;6335412;28;20399;-76
2021/06/17 07:56:40;;;;;;;3.72;2.63;;;;;;;;;;6328601;28;20205;-75
2021/06/17 07:59:44;;;;;;;7.70;2.80;;;;;;;;;;6336843;28;20183;-74
2021/06/17 08:02:48;;;;;;;7.15;2.63;;;;;;;;;;6338706;28;20416;-74
2021/06/17 08:05:52;;;;;;;9.52;3.13;;;;;;;;;;6340756;28;20310;-74
2021/06/17 08:08:56;;;;;;;9.57;2.97;;;;;;;;;;6341047;28;20187;-74
2021/06/17 08:12:01;;;;;;;3.22;2.40;;;;;;;;;;6341116;28;20218;-75
2021/06/17 08:15:06;;;;;;;3.33;2.63;;;;;;;;;;6339652;28;20456;-75
2021/06/17 08:18:16;;;;;;;3.72;2.60;;;;;;;;;;6340633;28;20184;-75
2021/06/17 08:21:20;;;;;;;6.25;2.88;;;;;;;;;;6340508;28;20238;-75
2021/06/17 08:24:24;;;;;;;7.10;2.30;;;;;;;;;;6340342;28;20182;-75
2021/06/17 08:27:29;;;;;;;8.43;3.65;;;;;;;;;;6340674;28;20182;-75
2021/06/17 08:30:33;;;;;;;7.38;4.00;;;;;;;;;;6340808;28;20187;-75
2021/06/17 08:33:37;;;;;;;6.60;3.92;;;;;;;;;;6339157;28;20186;-75
2021/06/17 08:36:41;;;;;;;10.70;4.30;;;;;;;;;;6339097;28;20482;-75
2021/06/17 08:39:45;;;;;;;6.80;3.22;;;;;;;;;;6339048;28;20186;-74
2021/06/17 08:42:50;;;;;;;9.20;3.33;;;;;;;;;;6339375;28;20217;-75
2021/06/17 08:45:54;;;;;;;7.03;3.22;;;;;;;;;;6340126;28;20214;-76
2021/06/17 08:48:58;;;;;;;4.25;2.80;;;;;;;;;;6338921;28;20492;-76
2021/06/17 08:52:02;;;;;;;7.03;4.50;;;;;;;;;;6340229;28;20225;-76
2021/06/17 08:55:10;;;;;;;5.40;3.40;;;;;;;;;;6340334;28;20241;-76
2021/06/17 08:58:16;;;;;;;10.82;5.57;;;;;;;;;;6339046;28;20187;-76
2021/06/17 09:01:21;;;;;;;3.22;3.10;;;;;;;;;;6321363;28;20229;-75
2021/06/17 09:04:26;;;;;;;6.70;4.80;;;;;;;;;;6339577;28;20221;-76
2021/06/17 09:07:33;;;;;;;5.03;3.50;;;;;;;;;;6339546;28;20182;-75
2021/06/17 09:10:39;;;;;;;12.43;6.07;;;;;;;;;;6338464;28;20470;-75
2021/06/17 09:13:45;;;;;;;5.63;4.40;;;;;;;;;;6338160;28;20537;-75
2021/06/17 09:16:58;;;;;;;5.15;4.00;;;;;;;;;;6338983;28;20221;-75
2021/06/17 09:20:03;;;;;;;6.85;4.50;;;;;;;;;;6339349;28;20190;-74
2021/06/17 09:23:20;;;;;;;8.48;3.25;;;;;;;;;;6337981;28;20501;-76
2021/06/17 09:26:28;;;;;;;4.13;3.22;;;;;;;;;;6339274;28;20250;-76
2021/06/17 09:29:33;;;;;;;3.65;2.80;;;;;;;;;;6339133;28;20445;-74
2021/06/17 09:32:38;;;;;;;3.28;2.97;;;;;;;;;;6338925;28;20206;-74
2021/06/17 09:35:48;;;;;;;6.18;2.80;;;;;;;;;;6337622;28;20214;-74
2021/06/17 09:38:52;;;;;;;6.60;2.90;;;;;;;;;;6338936;28;20190;-75
2021/06/17 09:41:57;;;;;;;8.52;3.00;;;;;;;;;;6338441;28;20528;-75
2021/06/17 09:45:15;;;;;;;3.20;2.67;;;;;;;;;;6338701;28;20183;-75
2021/06/17 09:48:32;;;;;;;6.45;2.90;;;;;;;;;;6338486;28;20190;-75
2021/06/17 09:51:38;;;;;;;3.40;2.58;;;;;;;;;;6337441;28;20515;-75
2021/06/17 09:54:43;;;;;;;15.10;2.70;;;;;;;;;;6337203;28;20238;-75
2021/06/17 09:57:47;;;;;;;6.55;2.53;;;;;;;;;;6338104;28;20183;-75
2021/06/17 10:00:55;;;;;;;4.28;2.55;;;;;;;;;;6338375;28;20189;-75
2021/06/17 10:04:02;;;;;;;2.70;2.50;;;;;;;;;;6338502;28;20264;-75
2021/06/17 10:07:07;;;;;;;8.23;3.42;;;;;;;;;;6337117;28;20474;-74
2021/06/17 10:10:12;;;;;;;4.97;2.10;;;;;;;;;;6337598;28;20228;-74
2021/06/17 10:13:16;;;;;;;3.70;2.40;;;;;;;;;;6336842;28;20187;-74
2021/06/17 10:16:22;;;;;;;3.97;2.40;;;;;;;;;;6338281;28;20217;-74
2021/06/17 10:19:28;;;;;;;2.78;2.50;;;;;;;;;;6337392;28;20183;-75
2021/06/17 10:22:33;;;;;;;6.35;2.55;;;;;;;;;;6337278;28;20290;-75
2021/06/17 10:25:37;;;;;;;5.80;2.53;;;;;;;;;;6337223;28;20246;-74
2021/06/17 10:28:42;;;;;;;4.38;2.20;;;;;;;;;;6336572;28;20233;-74
2021/06/17 10:31:50;;;;;;;3.72;1.88;;;;;;;;;;6337300;28;20187;-74
2021/06/17 10:34:54;;;;;;;4.38;2.20;;;;;;;;;;6337241;28;20249;-76
2021/06/17 10:37:59;;;;;;;2.55;2.00;;;;;;;;;;6335872;28;20379;-75
2021/06/17 10:41:04;;;;;;;15.05;2.00;;;;;;;;;;6335523;28;20203;-75
2021/06/17 10:44:23;;;;;;;1.77;1.67;;;;;;;;;;6336820;28;20237;-75
2021/06/17 10:47:52;;;;;;;3.00;1.75;;;;;;;;;;6336426;28;20205;-75
2021/06/17 10:51:06;;;;;;;9.00;1.88;;;;;;;;;;6335781;28;20222;-75
2021/06/17 10:54:25;;;;;;;2.75;1.40;;;;;;;;;;6333369;28;20257;-75
2021/06/17 10:57:49;;;;;;;10.73;1.80;;;;;;;;;;6335933;28;20383;-75
2021/06/17 11:00:53;;;;;;;3.45;1.60;;;;;;;;;;6336690;28;20245;-75
2021/06/17 11:04:05;;;;;;;8.25;2.25;;;;;;;;;;6336959;28;20214;-75
2021/06/17 11:07:14;;;;;;;3.75;1.67;;;;;;;;;;6336042;28;20191;-75
2021/06/17 11:10:18;;;;;;;1.70;1.60;;;;;;;;;;6337653;28;20190;-75
2021/06/17 11:13:28;;;;;;;1.95;1.73;;;;;;;;;;6335928;28;20209;-76
2021/06/17 11:16:31;;;;;;;1.48;1.48;;;;;;;;;;6337112;28;20250;-76
2021/06/17 11:19:50;;;;;;;5.53;1.90;;;;;;;;;;6337169;28;20183;-76
2021/06/17 11:22:58;;;;;;;4.32;1.50;;;;;;;;;;6336805;28;20248;-76
2021/06/17 11:26:02;;;;;;;1.95;1.40;;;;;;;;;;6337075;28;20228;-76
2021/06/17 11:29:14;;;;;;;4.38;1.80;;;;;;;;;;6319861;28;20202;-76
2021/06/17 11:32:25;;;;;;;5.63;2.00;;;;;;;;;;6336590;28;20193;-75
2021/06/17 11:35:31;;;;;;;5.45;1.70;;;;;;;;;;6336967;28;20246;-75
2021/06/17 11:38:37;;;;;;;4.63;1.80;;;;;;;;;;6341389;28;20183;-75
2021/06/17 11:41:41;;;;;;;3.95;1.98;;;;;;;;;;6341370;28;20245;-75
2021/06/17 11:44:45;;;;;;;5.10;1.63;;;;;;;;;;6340424;28;20182;-76
2021/06/17 11:47:49;;;;;;;5.97;1.77;;;;;;;;;;6341565;28;20228;-75
2021/06/17 11:50:54;;;;;;;5.60;1.92;;;;;;;;;;6340280;28;20536;-75
2021/06/17 11:54:01;;;;;;;2.75;1.45;;;;;;;;;;6341098;28;20235;-75
2021/06/17 11:57:05;;;;;;;7.38;1.60;;;;;;;;;;6340416;28;20474;-75
2021/06/17 12:00:12;;;;;;;4.00;1.50;;;;;;;;;;6340628;28;20473;-76
2021/06/17 12:03:29;;;;;;;2.90;1.30;;;;;;;;;;6341411;28;20256;-74
2021/06/17 12:06:34;;;;;;;4.47;1.55;;;;;;;;;;6340775;28;20254;-74
2021/06/17 12:09:39;;;;;;;5.13;1.58;;;;;;;;;;6333175;28;20183;-76
2021/06/17 12:12:46;;;;;;;5.25;1.20;;;;;;;;;;6339870;28;20402;-76
2021/06/17 12:15:56;;;;;;;4.75;1.20;;;;;;;;;;6339992;28;20218;-76
2021/06/17 12:19:00;;;;;;;3.75;1.33;;;;;;;;;;6340360;28;20219;-75
2021/06/17 12:22:05;;;;;;;2.13;1.20;;;;;;;;;;6340746;28;20261;-76
2021/06/17 12:25:10;;;;;;;2.95;1.08;;;;;;;;;;6340685;28;20237;-76
2021/06/17 12:28:16;;;;;;;2.92;1.40;;;;;;;;;;6339375;28;20529;-76
2021/06/17 12:31:26;;;;;;;1.77;1.58;;;;;;;;;;6339545;28;20470;-76
2021/06/17 12:34:38;;;;;;;3.65;1.75;;;;;;;;;;6339352;28;20191;-76
2021/06/17 12:37:52;;;;;;;3.65;1.42;;;;;;;;;;6338976;28;20250;-75
2021/06/17 12:40:57;;;;;;;1.67;1.55;;;;;;;;;;6340636;28;20220;-76
2021/06/17 12:44:01;;;;;;;5.03;1.85;;;;;;;;;;6340084;28;20211;-75
2021/06/17 12:47:07;;;;;;;1.67;1.58;;;;;;;;;;6339731;28;20187;-76
2021/06/17 12:53:47;;;;;;;12.18;2.08;;;;;;;;;;6295323;28;20280;-76
2021/06/17 12:56:53;;;;;;;5.07;1.88;;;;;;;;;;6338655;28;20359;-76
2021/06/17 12:59:57;;;;;;;9.20;2.20;;;;;;;;;;6339751;28;20254;-75
2021/06/17 13:03:01;;;;;;;3.65;1.83;;;;;;;;;;6339674;28;20214;-76
2021/06/17 13:06:06;;;;;;;1.92;1.73;;;;;;;;;;6338477;28;20501;-76
2021/06/17 13:09:21;;;;;;;6.07;2.13;;;;;;;;;;6339811;28;20183;-75
2021/06/17 13:12:28;;;;;;;5.45;1.80;;;;;;;;;;6339765;28;20205;-75
2021/06/17 13:15:32;;;;;;;5.95;1.85;;;;;;;;;;6338258;28;20516;-74
2021/06/17 13:18:36;;;;;;;5.07;2.50;;;;;;;;;;6337923;28;20500;-75
2021/06/17 13:21:40;;;;;;;2.42;1.58;;;;;;;;;;6331094;28;20214;-74
2021/06/17 13:24:43;;;;;;;3.00;1.90;;;;;;;;;;6338861;28;20207;-75
2021/06/17 13:27:48;;;;;;;1.48;1.38;;;;;;;;;;6337851;28;20538;-75
2021/06/17 13:30:52;;;;;;;9.68;2.03;;;;;;;;;;6320030;28;20539;-76
2021/06/17 13:33:56;;;;;;;4.88;1.60;;;;;;;;;;6338826;28;20187;-75
2021/06/17 13:37:00;;;;;;;3.17;2.28;;;;;;;;;;6338135;28;20360;-76
2021/06/17 13:40:07;;;;;;;5.07;1.85;;;;;;;;;;6338909;28;20190;-76
2021/06/17 13:43:15;;;;;;;5.10;1.70;;;;;;;;;;6337979;28;20210;-75
2021/06/17 13:46:18;;;;;;;1.38;1.38;;;;;;;;;;6337268;28;20454;-75
2021/06/17 13:49:22;;;;;;;4.43;1.77;;;;;;;;;;6338244;28;20214;-75
2021/06/17 13:52:26;;;;;;;1.90;1.80;;;;;;;;;;6337439;28;20214;-75
2021/06/17 13:55:29;;;;;;;7.80;2.03;;;;;;;;;;6338150;28;20528;-75
2021/06/17 13:58:35;;;;;;;4.03;1.80;;;;;;;;;;6336499;28;20183;-75
2021/06/17 14:01:39;;;;;;;4.53;2.00;;;;;;;;;;6338374;28;20183;-75
2021/06/17 14:04:44;;;;;;;5.35;2.15;;;;;;;;;;6337189;28;20226;-76
2021/06/17 14:07:48;;;;;;;6.13;2.38;;;;;;;;;;6338095;28;20228;-75
2021/06/17 14:10:53;;;;;;;2.30;2.13;;;;;;;;;;6338272;28;20272;-75
2021/06/17 14:13:58;;;;;;;2.17;1.95;;;;;;;;;;6338145;28;20222;-75
2021/06/17 14:17:02;;;;;;;7.60;2.33;;;;;;;;;;6338087;28;20214;-75
2021/06/17 14:20:07;;;;;;;7.88;2.10;;;;;;;;;;6336492;28;20413;-75
2021/06/17 14:23:12;;;;;;;4.20;2.20;;;;;;;;;;6336639;28;20513;-75
2021/06/17 14:26:15;;;;;;;2.50;2.10;;;;;;;;;;6337418;28;20182;-75
2021/06/17 14:29:20;;;;;;;6.38;2.42;;;;;;;;;;6338008;28;20182;-77
2021/06/17 14:32:24;;;;;;;3.75;2.28;;;;;;;;;;6336468;28;20453;-75
2021/06/17 14:35:28;;;;;;;3.85;2.50;;;;;;;;;;6337716;28;20187;-75
2021/06/17 14:38:33;;;;;;;2.30;2.20;;;;;;;;;;6336171;28;20182;-75
2021/06/17 14:41:37;;;;;;;3.00;2.17;;;;;;;;;;6336967;28;20237;-74
2021/06/17 14:44:41;;;;;;;6.63;2.30;;;;;;;;;;6336147;28;20270;-75
2021/06/17 14:47:45;;;;;;;9.18;2.22;;;;;;;;;;6337087;28;20247;-75
2021/06/17 14:50:49;;;;;;;4.53;2.28;;;;;;;;;;6337197;28;20191;-75
2021/06/17 14:53:53;;;;;;;6.38;2.17;;;;;;;;;;6336068;28;20605;-75
2021/06/17 14:56:57;;;;;;;5.20;2.55;;;;;;;;;;6337337;28;20232;-75
2021/06/17 15:00:02;;;;;;;2.38;2.25;;;;;;;;;;6337104;28;20214;-75
2021/06/17 15:03:08;;;;;;;8.43;2.50;;;;;;;;;;6337093;28;20228;-75
2021/06/17 15:06:11;;;;;;;5.50;2.33;;;;;;;;;;6336584;28;20207;-75
2021/06/17 15:09:15;;;;;;;3.75;2.35;;;;;;;;;;6337239;28;20204;-75
2021/06/17 15:12:19;;;;;;;2.80;2.42;;;;;;;;;;6341712;28;20261;-75
2021/06/17 15:15:24;;;;;;;3.70;1.98;;;;;;;;;;6341738;28;20206;-75
2021/06/17 15:18:31;;;;;;;3.75;2.28;;;;;;;;;;6340924;28;20220;-76
2021/06/17 15:21:35;;;;;;;7.57;2.38;;;;;;;;;;6341734;28;20183;-75
2021/06/17 15:24:39;;;;;;;4.82;2.47;;;;;;;;;;6341264;28;20210;-76
2021/06/17 15:27:43;;;;;;;3.40;2.33;;;;;;;;;;6342098;28;20183;-75
2021/06/17 15:30:48;;;;;;;2.63;2.42;;;;;;;;;;6340738;28;20190;-76
2021/06/17 15:33:53;;;;;;;4.95;2.25;;;;;;;;;;6340409;28;20352;-76
2021/06/17 15:36:57;;;;;;;2.85;2.38;;;;;;;;;;6340527;28;20420;-75
2021/06/17 15:40:01;;;;;;;4.40;2.13;;;;;;;;;;6341615;28;20186;-75
2021/06/17 15:43:04;;;;;;;3.08;2.20;;;;;;;;;;6341508;28;20221;-75
2021/06/17 15:46:10;;;;;;;3.17;2.30;;;;;;;;;;6340581;28;20268;-75
2021/06/17 15:49:14;;;;;;;5.10;2.40;;;;;;;;;;6340787;28;20183;-75
2021/06/17 15:52:18;;;;;;;7.82;3.15;;;;;;;;;;6323868;28;20379;-74
2021/06/17 15:55:22;;;;;;;3.38;2.42;;;;;;;;;;6340521;28;20482;-74
2021/06/17 15:58:26;;;;;;;4.50;2.67;;;;;;;;;;6341350;28;20228;-75
2021/06/17 16:01:31;;;;;;;3.30;2.38;;;;;;;;;;6341441;28;20189;-75
2021/06/17 16:04:35;;;;;;;2.72;2.30;;;;;;;;;;6339776;28;20514;-75
2021/06/17 16:07:39;;;;;;;7.72;2.20;;;;;;;;;;6340688;28;20190;-75
2021/06/17 16:10:43;;;;;;;4.45;2.60;;;;;;;;;;6341166;28;20473;-75
2021/06/17 16:13:47;;;;;;;4.57;2.70;;;;;;;;;;6341854;28;20204;-76
2021/06/17 16:16:52;;;;;;;8.27;2.38;;;;;;;;;;6340587;28;20402;-74
2021/06/17 16:19:56;;;;;;;6.38;2.42;;;;;;;;;;6341018;28;20218;-75
2021/06/17 16:23:00;;;;;;;4.65;2.72;;;;;;;;;;6338737;28;20182;-74
2021/06/17 16:26:04;;;;;;;2.97;2.40;;;;;;;;;;6339355;28;20210;-74
2021/06/17 16:29:09;;;;;;;9.77;2.55;;;;;;;;;;6340738;28;20183;-75
2021/06/17 16:32:14;;;;;;;4.38;3.00;;;;;;;;;;6340354;28;20186;-75
2021/06/17 16:35:18;;;;;;;3.20;2.33;;;;;;;;;;6340554;28;20237;-76
2021/06/17 16:38:22;;;;;;;3.10;2.50;;;;;;;;;;6339321;28;20182;-76
2021/06/17 16:41:26;;;;;;;4.60;2.45;;;;;;;;;;6339070;28;20451;-76
2021/06/17 16:44:29;;;;;;;4.50;2.78;;;;;;;;;;6338917;28;20529;-76
2021/06/17 16:47:34;;;;;;;7.32;2.20;;;;;;;;;;6340299;28;20341;-75
2021/06/17 16:50:38;;;;;;;5.60;2.40;;;;;;;;;;6340334;28;20228;-76
2021/06/17 16:53:42;;;;;;;8.38;3.00;;;;;;;;;;6339608;28;20234;-76
2021/06/17 16:56:45;;;;;;;7.13;2.33;;;;;;;;;;6339401;28;20213;-76
2021/06/17 16:59:49;;;;;;;4.38;2.10;;;;;;;;;;6339885;28;20182;-76
2021/06/17 17:02:54;;;;;;;7.18;2.92;;;;;;;;;;6339707;28;20220;-75
2021/06/17 17:05:59;;;;;;;8.02;2.40;;;;;;;;;;6339294;28;20372;-76
2021/06/17 17:09:03;;;;;;;3.15;2.50;;;;;;;;;;6338269;28;20195;-76
2021/06/17 17:12:07;;;;;;;6.20;2.40;;;;;;;;;;6339399;28;20183;-76
2021/06/17 17:15:12;;;;;;;6.93;2.47;;;;;;;;;;6338958;28;20254;-76
2021/06/17 17:18:20;;;;;;;5.50;2.25;;;;;;;;;;6322941;28;20183;-76
2021/06/17 17:21:26;;;;;;;21.85;3.55;;;;;;;;;;6341447;28;20240;-75
2021/06/17 17:24:30;;;;;;;19.30;2.60;;;;;;;;;;6338631;28;20423;-76
2021/06/17 17:27:33;;;;;;;7.07;3.30;;;;;;;;;;6337616;28;20238;-76
2021/06/17 17:30:37;;;;;;;5.00;2.70;;;;;;;;;;6320156;28;20267;-75
2021/06/17 17:33:43;;;;;;;10.85;2.67;;;;;;;;;;6338079;28;20219;-76
2021/06/17 17:36:47;;;;;;;3.80;2.83;;;;;;;;;;6338902;28;20187;-76
2021/06/17 17:39:50;;;;;;;4.72;2.42;;;;;;;;;;6338655;28;20228;-76
2021/06/17 17:42:54;;;;;;;9.23;3.33;;;;;;;;;;6338316;28;20215;-76
2021/06/17 17:45:58;;;;;;;5.00;3.60;;;;;;;;;;6320511;28;20229;-75
2021/06/17 17:49:04;;;;;;;5.13;2.50;;;;;;;;;;6337347;28;20527;-76
2021/06/17 17:52:09;;;;;;;6.88;2.70;;;;;;;;;;6339111;28;20183;-76
2021/06/17 17:55:14;;;;;;;6.32;3.10;;;;;;;;;;6338852;28;20234;-74
2021/06/17 17:58:18;;;;;;;3.25;2.42;;;;;;;;;;6336999;28;20288;-76
2021/06/17 18:01:22;;;;;;;10.15;2.67;;;;;;;;;;6336820;28;20335;-74
2021/06/17 18:04:27;;;;;;;5.65;2.65;;;;;;;;;;6337782;28;20228;-76
2021/06/17 18:07:31;;;;;;;7.60;2.70;;;;;;;;;;6336927;28;20286;-75
2021/06/17 18:10:36;;;;;;;4.22;2.67;;;;;;;;;;6337004;28;20225;-75
2021/06/17 18:13:41;;;;;;;11.27;2.58;;;;;;;;;;6337719;28;20250;-75
2021/06/17 18:16:59;;;;;;;4.60;2.15;;;;;;;;;;6336672;28;20276;-76
2021/06/17 18:20:06;;;;;;;4.90;2.40;;;;;;;;;;6337790;28;20194;-76
2021/06/17 18:23:11;;;;;;;4.70;2.38;;;;;;;;;;6336697;28;20376;-76
2021/06/17 18:26:17;;;;;;;9.70;2.72;;;;;;;;;;6337562;28;20217;-76
2021/06/17 18:29:21;;;;;;;3.53;2.40;;;;;;;;;;6336642;28;20410;-76
2021/06/17 18:32:25;;;;;;;9.05;2.50;;;;;;;;;;6337082;28;20266;-76
2021/06/17 18:35:32;;;;;;;5.78;2.53;;;;;;;;;;6337699;28;20182;-76